createdAt,value
2023-01-02T00:04:52.745Z,7.65
2023-01-02T00:09:57.900Z,7.76
2023-01-02T00:15:01.419Z,7.69
2023-01-02T00:20:07.660Z,7.66
2023-01-02T00:25:12.629Z,7.65
2023-01-02T00:30:16.037Z,7.78
2023-01-02T00:35:19.551Z,7.75
2023-01-02T00:40:24.353Z,7.68
2023-01-02T00:45:27.783Z,7.57
2023-01-02T00:50:31.487Z,7.51
2023-01-02T00:55:36.220Z,7.48
2023-01-02T01:00:40.339Z,7.51
2023-01-02T01:05:44.124Z,7.46
2023-01-02T01:10:48.944Z,7.54
2023-01-02T01:15:52.426Z,7.57
2023-01-02T01:20:55.864Z,7.58
2023-01-02T01:26:00.701Z,7.59
2023-01-02T01:31:04.818Z,7.68
2023-01-02T01:36:10.477Z,7.45
2023-01-02T01:41:22.664Z,7.40
2023-01-02T01:46:31.272Z,7.36
2023-01-02T01:51:40.126Z,7.28
2023-01-02T01:56:50.379Z,7.32
2023-01-02T02:01:54.155Z,7.29
2023-01-02T02:06:57.910Z,7.32
2023-01-02T02:12:03.719Z,7.36
2023-01-02T02:17:18.354Z,7.24
2023-01-02T02:22:43.364Z,7.20
2023-01-02T02:28:21.320Z,7.10
2023-01-02T02:33:36.952Z,7.11
2023-01-02T02:38:53.312Z,7.07
2023-01-02T02:44:05.119Z,7.09
2023-01-02T02:49:21.298Z,7.11
2023-01-02T02:54:32.775Z,7.09
2023-01-02T02:59:37.952Z,7.00
2023-01-02T03:04:44.164Z,6.97
2023-01-02T03:09:56.618Z,6.95
2023-01-02T03:15:11.365Z,6.87
2023-01-02T03:20:21.066Z,6.92
2023-01-02T03:25:26.264Z,7.02
2023-01-02T03:30:34.977Z,7.03
2023-01-02T03:35:43.838Z,7.03
2023-01-02T03:40:52.252Z,7.17
2023-01-02T03:46:05.595Z,7.02
2023-01-02T03:51:11.546Z,6.99
2023-01-02T03:56:23.735Z,6.94
2023-01-02T04:01:33.864Z,7.01
2023-01-02T04:06:44.089Z,6.94
2023-01-02T04:11:51.468Z,6.95
2023-01-02T04:16:56.800Z,7.25
2023-01-02T04:22:06.793Z,7.17
2023-01-02T04:27:15.471Z,6.98
2023-01-02T04:32:22.393Z,6.90
2023-01-02T04:37:36.105Z,6.82
2023-01-02T04:42:39.505Z,6.89
2023-01-02T04:47:43.009Z,7.06
2023-01-02T04:52:47.984Z,6.95
2023-01-02T04:57:51.380Z,7.01
2023-01-02T05:02:54.838Z,6.93
2023-01-02T05:08:00.817Z,7.02
2023-01-02T05:13:04.507Z,6.88
2023-01-02T05:18:08.031Z,6.89
2023-01-02T05:23:30.964Z,6.85
2023-01-02T05:28:38.535Z,6.87
2023-01-02T05:33:42.422Z,6.84
2023-01-02T05:38:47.246Z,6.74
2023-01-02T05:43:50.741Z,6.84
2023-01-02T05:48:54.278Z,6.77
2023-01-02T05:53:59.040Z,6.80
2023-01-02T05:59:02.433Z,6.80
2023-01-02T06:04:06.120Z,6.97
2023-01-02T06:09:15.308Z,7.16
2023-01-02T06:14:18.679Z,7.24
2023-01-02T06:19:22.287Z,7.52
2023-01-02T06:24:27.508Z,8.01
2023-01-02T06:29:32.275Z,8.37
2023-01-02T06:34:35.740Z,8.53
2023-01-02T06:39:40.842Z,8.48
2023-01-02T06:44:44.296Z,8.65
2023-01-02T06:49:47.754Z,9.18
2023-01-02T06:54:52.542Z,9.01
2023-01-02T06:59:55.936Z,9.51
2023-01-02T07:04:59.324Z,9.70
2023-01-02T07:10:04.748Z,9.77
2023-01-02T07:15:08.994Z,9.91
2023-01-02T07:20:13.365Z,10.32
2023-01-02T07:25:19.547Z,10.55
2023-01-02T07:30:22.935Z,10.78
2023-01-02T07:35:26.395Z,11.13
2023-01-02T07:40:32.414Z,11.23
2023-01-02T07:45:36.196Z,11.42
2023-01-02T07:50:39.734Z,11.46
2023-01-02T07:55:44.530Z,11.68
2023-01-02T08:00:48.032Z,12.00
2023-01-02T08:05:51.693Z,12.22
2023-01-02T08:10:56.615Z,12.57
2023-01-02T08:16:00.056Z,12.86
2023-01-02T08:21:04.021Z,13.01
2023-01-02T08:26:10.372Z,13.34
2023-01-02T08:31:16.088Z,13.74
2023-01-02T08:36:19.578Z,13.98
2023-01-02T08:41:34.782Z,14.21
2023-01-02T08:46:42.504Z,14.57
2023-01-02T08:51:46.242Z,14.65
2023-01-02T08:56:52.209Z,14.90
2023-01-02T09:01:56.317Z,15.38
2023-01-02T09:06:59.900Z,15.83
2023-01-02T09:12:05.133Z,16.07
2023-01-02T09:17:08.936Z,16.51
2023-01-02T09:22:12.780Z,16.60
2023-01-02T09:27:17.620Z,16.86
2023-01-02T09:32:21.496Z,17.00
2023-01-02T09:37:24.916Z,17.28
2023-01-02T09:42:29.804Z,17.70
2023-01-02T09:47:33.415Z,17.76
2023-01-02T09:52:41.449Z,18.49
2023-01-02T09:57:52.799Z,18.78
2023-01-02T10:03:08.272Z,19.33
2023-01-02T10:08:31.407Z,19.46
2023-01-02T10:19:13.020Z,18.80
2023-01-02T10:24:21.888Z,19.14
2023-01-02T10:29:31.789Z,19.53
2023-01-02T10:34:41.334Z,20.08
2023-01-02T10:39:46.715Z,20.12
2023-01-02T10:44:51.962Z,20.14
2023-01-02T10:49:55.996Z,19.84
2023-01-02T10:55:00.945Z,19.81
2023-01-02T11:00:08.799Z,18.39
2023-01-02T11:05:22.281Z,18.77
2023-01-02T11:10:28.961Z,19.41
2023-01-02T11:15:35.544Z,19.81
2023-01-02T11:20:39.545Z,19.98
2023-01-02T11:25:44.993Z,19.99
2023-01-02T11:30:52.848Z,20.25
2023-01-02T11:35:58.117Z,19.20
2023-01-02T11:41:03.354Z,19.66
2023-01-02T11:46:17.758Z,19.84
2023-01-02T11:51:23.404Z,19.60
2023-01-02T11:56:31.936Z,19.35
2023-01-02T12:01:52.990Z,19.89
2023-01-02T12:07:12.578Z,19.70
2023-01-02T12:12:37.253Z,20.00
2023-01-02T12:17:51.383Z,19.04
2023-01-02T12:23:15.412Z,19.16
2023-01-02T12:28:51.792Z,19.23
2023-01-02T12:34:07.841Z,18.95
2023-01-02T12:39:40.364Z,18.93
2023-01-02T12:44:51.747Z,18.77
2023-01-02T12:50:12.528Z,18.76
2023-01-02T12:55:29.109Z,18.48
2023-01-02T13:00:48.503Z,18.00
2023-01-02T13:05:58.131Z,17.87
2023-01-02T13:11:06.391Z,17.74
2023-01-02T13:16:24.790Z,17.45
2023-01-02T13:21:39.594Z,17.31
2023-01-02T13:26:43.741Z,17.21
2023-01-02T13:31:50.729Z,17.31
2023-01-02T13:37:03.252Z,17.12
2023-01-02T13:42:26.104Z,17.04
2023-01-02T13:47:34.854Z,16.98
2023-01-02T13:52:41.337Z,16.91
2023-01-02T13:57:44.728Z,16.78
2023-01-02T14:03:35.354Z,16.43
2023-01-02T14:08:42.441Z,16.23
2023-01-02T14:13:49.669Z,16.02
2023-01-02T14:19:16.707Z,15.73
2023-01-02T14:24:32.343Z,15.17
2023-01-02T14:29:49.017Z,14.90
2023-01-02T14:34:59.792Z,14.38
2023-01-02T14:40:39.129Z,14.16
2023-01-02T14:45:46.285Z,13.91
2023-01-02T14:50:50.599Z,13.54
2023-01-02T14:56:00.251Z,13.28
2023-01-02T15:01:05.897Z,12.88
2023-01-02T15:06:15.698Z,12.72
2023-01-02T15:11:40.661Z,12.48
2023-01-02T15:16:50.087Z,12.30
2023-01-02T15:21:55.588Z,12.16
2023-01-02T15:27:16.209Z,11.93
2023-01-02T15:32:21.805Z,11.80
2023-01-02T15:37:25.253Z,11.68
2023-01-02T15:42:47.543Z,11.67
2023-01-02T15:47:53.024Z,11.44
2023-01-02T15:53:01.741Z,11.36
2023-01-02T15:58:25.624Z,11.20
2023-01-02T16:04:02.676Z,11.13
2023-01-02T16:09:04.086Z,11.06
2023-01-02T16:14:20.759Z,11.02
2023-01-02T16:19:31.682Z,10.75
2023-01-02T16:24:37.003Z,10.48
2023-01-02T16:29:44.901Z,10.63
2023-01-02T16:35:00.699Z,10.51
2023-01-02T16:41:00.269Z,10.47
2023-01-02T16:46:10.264Z,10.34
2023-01-02T16:51:16.635Z,10.12
2023-01-02T16:56:20.119Z,10.24
2023-01-02T17:01:25.895Z,10.17
2023-01-02T17:06:29.626Z,10.12
2023-01-02T17:11:33.194Z,9.97
2023-01-02T17:16:38.137Z,9.98
2023-01-02T17:21:41.662Z,9.81
2023-01-02T17:26:45.428Z,9.58
2023-01-02T17:31:50.303Z,9.57
2023-01-02T17:36:57.209Z,9.41
2023-01-02T17:42:02.098Z,9.36
2023-01-02T17:47:48.217Z,9.29
2023-01-02T17:52:31.197Z,9.24
2023-01-02T17:57:38.991Z,9.29
2023-01-02T18:02:45.368Z,9.08
2023-01-02T18:07:49.163Z,9.19
2023-01-02T18:12:52.597Z,9.17
2023-01-02T18:18:00.646Z,8.99
2023-01-02T18:23:13.167Z,9.13
2023-01-02T18:28:24.221Z,9.35
2023-01-02T18:33:29.573Z,9.20
2023-01-02T18:38:38.373Z,9.23
2023-01-02T18:43:42.267Z,9.19
2023-01-02T18:48:47.731Z,9.14
2023-01-02T18:53:53.213Z,9.06
2023-01-02T18:59:03.297Z,8.97
2023-01-02T19:04:27.383Z,8.98
2023-01-02T19:09:35.639Z,8.94
2023-01-02T19:14:41.840Z,8.75
2023-01-02T19:19:49.704Z,8.77
2023-01-02T19:24:53.297Z,8.56
2023-01-02T19:29:57.019Z,8.54
2023-01-02T19:35:11.784Z,8.61
2023-01-02T19:40:19.705Z,8.65
2023-01-02T19:45:25.617Z,8.75
2023-01-02T19:50:30.550Z,8.61
2023-01-02T19:55:36.654Z,8.62
2023-01-02T20:00:40.257Z,8.54
2023-01-02T20:05:45.172Z,8.56
2023-01-02T20:10:48.958Z,8.43
2023-01-02T20:15:52.712Z,8.44
2023-01-02T20:20:57.857Z,8.46
2023-01-02T20:26:01.658Z,8.34
2023-01-02T20:31:05.522Z,8.35
2023-01-02T20:36:13.809Z,8.31
2023-01-02T20:41:17.525Z,8.34
2023-01-02T20:46:21.070Z,8.34
2023-01-02T20:51:25.873Z,8.21
2023-01-02T20:56:30.473Z,8.08
2023-01-02T21:01:34.070Z,7.98
2023-01-02T21:06:39.378Z,7.89
2023-01-02T21:11:42.931Z,7.88
2023-01-02T21:16:46.342Z,7.95
2023-01-02T21:21:52.147Z,8.00
2023-01-02T21:26:55.855Z,8.04
2023-01-02T21:31:59.319Z,8.03
2023-01-02T21:37:04.514Z,8.12
2023-01-02T21:42:17.085Z,8.23
2023-01-02T21:47:20.499Z,8.18
2023-01-02T21:52:25.419Z,8.27
2023-01-02T21:57:54.158Z,8.22
2023-01-02T22:02:53.846Z,8.13
2023-01-02T22:07:58.754Z,8.24
2023-01-02T22:13:02.180Z,8.19
2023-01-02T22:18:05.762Z,8.07
2023-01-02T22:23:10.587Z,8.04
2023-01-02T22:28:14.025Z,7.97
2023-01-02T22:33:17.627Z,7.87
2023-01-02T22:38:22.463Z,7.74
2023-01-02T22:43:26.166Z,7.82
2023-01-02T22:48:33.577Z,7.74
2023-01-02T22:53:39.570Z,7.65
2023-01-02T22:58:43.621Z,7.71
2023-01-02T23:03:48.644Z,7.52
2023-01-02T23:08:54.668Z,7.64
2023-01-02T23:13:58.058Z,7.44
2023-01-02T23:19:17.579Z,7.32
2023-01-02T23:24:25.487Z,7.35
2023-01-02T23:29:29.848Z,7.30
2023-01-02T23:34:33.332Z,7.27
2023-01-02T23:39:38.466Z,7.21
2023-01-02T23:44:42.223Z,7.13
2023-01-02T23:49:45.589Z,7.12
2023-01-02T23:54:50.415Z,7.32
2023-01-02T23:59:54.087Z,7.05
